sensor_id;sensor_type;location;lat;lon;timestamp;P1;durP1;ratioP1;P2;durP2;ratioP2
35150;SDS011;55720;51.972;4.624;2022-11-11T00:00:27;27.65;;;13.90;;
35150;SDS011;55720;51.972;4.624;2022-11-11T00:02:56;28.73;;;15.00;;
35150;SDS011;55720;51.972;4.624;2022-11-11T00:05:22;27.45;;;14.73;;
35150;SDS011;55720;51.972;4.624;2022-11-11T00:07:48;29.40;;;14.82;;
35150;SDS011;55720;51.972;4.624;2022-11-11T00:10:14;36.97;;;15.65;;
35150;SDS011;55720;51.972;4.624;2022-11-11T00:12:39;26.70;;;14.45;;
35150;SDS011;55720;51.972;4.624;2022-11-11T00:15:05;30.58;;;15.43;;
35150;SDS011;55720;51.972;4.624;2022-11-11T00:17:31;28.60;;;15.20;;
35150;SDS011;55720;51.972;4.624;2022-11-11T00:20:16;29.83;;;15.57;;
35150;SDS011;55720;51.972;4.624;2022-11-11T00:23:01;31.38;;;15.88;;
35150;SDS011;55720;51.972;4.624;2022-11-11T00:25:45;33.17;;;16.73;;
35150;SDS011;55720;51.972;4.624;2022-11-11T00:28:11;34.35;;;17.45;;
35150;SDS011;55720;51.972;4.624;2022-11-11T00:30:36;29.70;;;16.60;;
35150;SDS011;55720;51.972;4.624;2022-11-11T00:33:01;33.55;;;17.40;;
35150;SDS011;55720;51.972;4.624;2022-11-11T00:35:27;30.75;;;16.83;;
35150;SDS011;55720;51.972;4.624;2022-11-11T00:38:11;32.75;;;16.77;;
35150;SDS011;55720;51.972;4.624;2022-11-11T00:40:57;32.15;;;17.65;;
35150;SDS011;55720;51.972;4.624;2022-11-11T00:43:23;30.30;;;17.35;;
35150;SDS011;55720;51.972;4.624;2022-11-11T00:45:48;32.33;;;18.40;;
35150;SDS011;55720;51.972;4.624;2022-11-11T00:48:14;36.97;;;17.83;;
35150;SDS011;55720;51.972;4.624;2022-11-11T00:50:57;31.95;;;17.40;;
35150;SDS011;55720;51.972;4.624;2022-11-11T00:53:24;30.80;;;17.65;;
35150;SDS011;55720;51.972;4.624;2022-11-11T00:55:54;33.88;;;17.80;;
35150;SDS011;55720;51.972;4.624;2022-11-11T00:58:21;34.15;;;18.20;;
35150;SDS011;55720;51.972;4.624;2022-11-11T01:00:47;39.08;;;18.67;;
35150;SDS011;55720;51.972;4.624;2022-11-11T01:03:14;37.67;;;18.45;;
35150;SDS011;55720;51.972;4.624;2022-11-11T01:05:40;38.33;;;19.30;;
35150;SDS011;55720;51.972;4.624;2022-11-11T01:08:06;35.65;;;17.65;;
35150;SDS011;55720;51.972;4.624;2022-11-11T01:10:31;39.30;;;19.40;;
35150;SDS011;55720;51.972;4.624;2022-11-11T01:13:07;37.20;;;18.17;;
35150;SDS011;55720;51.972;4.624;2022-11-11T01:15:39;34.85;;;17.60;;
35150;SDS011;55720;51.972;4.624;2022-11-11T01:18:06;35.88;;;17.27;;
35150;SDS011;55720;51.972;4.624;2022-11-11T01:20:33;36.10;;;19.25;;
35150;SDS011;55720;51.972;4.624;2022-11-11T01:23:01;40.55;;;18.00;;
35150;SDS011;55720;51.972;4.624;2022-11-11T01:25:26;41.90;;;19.55;;
35150;SDS011;55720;51.972;4.624;2022-11-11T01:27:51;34.40;;;17.13;;
35150;SDS011;55720;51.972;4.624;2022-11-11T01:30:17;37.03;;;18.55;;
35150;SDS011;55720;51.972;4.624;2022-11-11T01:32:42;38.13;;;18.92;;
35150;SDS011;55720;51.972;4.624;2022-11-11T01:35:08;39.47;;;18.60;;
35150;SDS011;55720;51.972;4.624;2022-11-11T01:37:33;41.42;;;19.55;;
35150;SDS011;55720;51.972;4.624;2022-11-11T01:39:59;37.72;;;18.90;;
35150;SDS011;55720;51.972;4.624;2022-11-11T01:42:25;42.05;;;19.83;;
35150;SDS011;55720;51.972;4.624;2022-11-11T01:44:50;32.65;;;17.48;;
35150;SDS011;55720;51.972;4.624;2022-11-11T01:47:17;39.88;;;19.33;;
35150;SDS011;55720;51.972;4.624;2022-11-11T01:54:58;43.10;;;19.48;;
35150;SDS011;55720;51.972;4.624;2022-11-11T01:57:31;38.53;;;19.20;;
35150;SDS011;55720;51.972;4.624;2022-11-11T02:00:08;35.55;;;18.90;;
35150;SDS011;55720;51.972;4.624;2022-11-11T02:02:44;37.25;;;19.02;;
35150;SDS011;55720;51.972;4.624;2022-11-11T02:05:13;45.60;;;19.83;;
35150;SDS011;55720;51.972;4.624;2022-11-11T02:07:59;42.97;;;20.27;;
35150;SDS011;55720;51.972;4.624;2022-11-11T02:10:30;35.75;;;19.33;;
35150;SDS011;55720;51.972;4.624;2022-11-11T02:12:56;40.00;;;19.67;;
35150;SDS011;55720;51.972;4.624;2022-11-11T02:15:41;33.75;;;18.70;;
35150;SDS011;55720;51.972;4.624;2022-11-11T02:18:07;42.38;;;20.50;;
35150;SDS011;55720;51.972;4.624;2022-11-11T02:20:36;38.65;;;19.23;;
35150;SDS011;55720;51.972;4.624;2022-11-11T02:25:35;39.30;;;19.52;;
35150;SDS011;55720;51.972;4.624;2022-11-11T02:28:03;38.63;;;20.90;;
35150;SDS011;55720;51.972;4.624;2022-11-11T02:30:31;41.33;;;20.45;;
35150;SDS011;55720;51.972;4.624;2022-11-11T02:32:56;45.47;;;21.33;;
35150;SDS011;55720;51.972;4.624;2022-11-11T02:35:29;40.38;;;19.92;;
35150;SDS011;55720;51.972;4.624;2022-11-11T02:37:55;42.22;;;20.25;;
35150;SDS011;55720;51.972;4.624;2022-11-11T02:43:01;42.20;;;20.45;;
35150;SDS011;55720;51.972;4.624;2022-11-11T02:45:27;43.03;;;20.73;;
35150;SDS011;55720;51.972;4.624;2022-11-11T02:47:52;39.40;;;20.55;;
35150;SDS011;55720;51.972;4.624;2022-11-11T02:50:17;45.97;;;20.98;;
35150;SDS011;55720;51.972;4.624;2022-11-11T02:52:43;47.25;;;20.60;;
35150;SDS011;55720;51.972;4.624;2022-11-11T02:55:08;45.60;;;20.60;;
35150;SDS011;55720;51.972;4.624;2022-11-11T02:57:34;43.58;;;20.83;;
35150;SDS011;55720;51.972;4.624;2022-11-11T03:00:00;44.88;;;21.10;;
35150;SDS011;55720;51.972;4.624;2022-11-11T03:02:27;45.70;;;21.70;;
35150;SDS011;55720;51.972;4.624;2022-11-11T03:04:53;41.13;;;19.75;;
35150;SDS011;55720;51.972;4.624;2022-11-11T03:07:20;40.22;;;20.65;;
35150;SDS011;55720;51.972;4.624;2022-11-11T03:09:46;42.22;;;20.80;;
35150;SDS011;55720;51.972;4.624;2022-11-11T03:12:11;49.38;;;20.90;;
35150;SDS011;55720;51.972;4.624;2022-11-11T03:14:36;38.00;;;19.73;;
35150;SDS011;55720;51.972;4.624;2022-11-11T03:17:02;47.95;;;20.95;;
35150;SDS011;55720;51.972;4.624;2022-11-11T03:19:46;36.65;;;18.60;;
35150;SDS011;55720;51.972;4.624;2022-11-11T03:22:11;40.42;;;20.48;;
35150;SDS011;55720;51.972;4.624;2022-11-11T03:24:37;38.17;;;19.70;;
35150;SDS011;55720;51.972;4.624;2022-11-11T03:27:21;45.78;;;20.80;;
35150;SDS011;55720;51.972;4.624;2022-11-11T03:29:46;48.63;;;20.58;;
35150;SDS011;55720;51.972;4.624;2022-11-11T03:32:11;40.13;;;20.65;;
35150;SDS011;55720;51.972;4.624;2022-11-11T03:34:37;44.85;;;20.10;;
35150;SDS011;55720;51.972;4.624;2022-11-11T03:37:07;47.05;;;20.92;;
35150;SDS011;55720;51.972;4.624;2022-11-11T03:39:53;45.55;;;19.35;;
35150;SDS011;55720;51.972;4.624;2022-11-11T03:42:18;35.50;;;19.13;;
35150;SDS011;55720;51.972;4.624;2022-11-11T03:44:44;39.42;;;20.08;;
35150;SDS011;55720;51.972;4.624;2022-11-11T03:47:09;42.42;;;19.70;;
35150;SDS011;55720;51.972;4.624;2022-11-11T03:49:35;43.85;;;19.50;;
35150;SDS011;55720;51.972;4.624;2022-11-11T03:52:00;38.78;;;18.90;;
35150;SDS011;55720;51.972;4.624;2022-11-11T03:54:25;44.55;;;19.40;;
35150;SDS011;55720;51.972;4.624;2022-11-11T03:56:51;37.53;;;18.80;;
35150;SDS011;55720;51.972;4.624;2022-11-11T03:59:16;36.35;;;18.63;;
35150;SDS011;55720;51.972;4.624;2022-11-11T04:01:41;34.97;;;18.42;;
35150;SDS011;55720;51.972;4.624;2022-11-11T04:04:25;40.67;;;20.15;;
35150;SDS011;55720;51.972;4.624;2022-11-11T04:07:09;38.78;;;19.02;;
35150;SDS011;55720;51.972;4.624;2022-11-11T04:09:54;38.25;;;19.58;;
35150;SDS011;55720;51.972;4.624;2022-11-11T04:12:38;38.25;;;19.45;;
35150;SDS011;55720;51.972;4.624;2022-11-11T04:15:25;36.53;;;19.60;;
35150;SDS011;55720;51.972;4.624;2022-11-11T04:18:09;38.17;;;19.65;;
35150;SDS011;55720;51.972;4.624;2022-11-11T04:20:34;41.08;;;19.55;;
35150;SDS011;55720;51.972;4.624;2022-11-11T04:23:18;38.72;;;19.25;;
35150;SDS011;55720;51.972;4.624;2022-11-11T04:25:44;32.97;;;18.80;;
35150;SDS011;55720;51.972;4.624;2022-11-11T04:28:17;40.58;;;18.65;;
35150;SDS011;55720;51.972;4.624;2022-11-11T04:31:01;35.65;;;18.48;;
35150;SDS011;55720;51.972;4.624;2022-11-11T04:33:27;39.97;;;20.80;;
35150;SDS011;55720;51.972;4.624;2022-11-11T04:35:52;40.08;;;19.13;;
35150;SDS011;55720;51.972;4.624;2022-11-11T04:38:18;39.55;;;19.77;;
35150;SDS011;55720;51.972;4.624;2022-11-11T04:41:01;42.60;;;19.10;;
35150;SDS011;55720;51.972;4.624;2022-11-11T04:43:27;41.67;;;19.85;;
35150;SDS011;55720;51.972;4.624;2022-11-11T04:45:59;41.00;;;18.67;;
35150;SDS011;55720;51.972;4.624;2022-11-11T04:48:25;36.22;;;19.73;;
35150;SDS011;55720;51.972;4.624;2022-11-11T04:50:51;36.90;;;18.40;;
35150;SDS011;55720;51.972;4.624;2022-11-11T04:53:16;40.67;;;20.48;;
35150;SDS011;55720;51.972;4.624;2022-11-11T04:55:42;36.60;;;17.85;;
35150;SDS011;55720;51.972;4.624;2022-11-11T04:58:31;42.78;;;18.90;;
35150;SDS011;55720;51.972;4.624;2022-11-11T05:00:58;38.85;;;18.48;;
35150;SDS011;55720;51.972;4.624;2022-11-11T05:03:24;40.05;;;18.65;;
35150;SDS011;55720;51.972;4.624;2022-11-11T05:05:51;37.13;;;18.02;;
35150;SDS011;55720;51.972;4.624;2022-11-11T05:08:36;38.85;;;18.55;;
35150;SDS011;55720;51.972;4.624;2022-11-11T05:11:23;36.47;;;18.60;;
35150;SDS011;55720;51.972;4.624;2022-11-11T05:13:57;36.20;;;18.48;;
35150;SDS011;55720;51.972;4.624;2022-11-11T05:16:50;34.75;;;17.08;;
35150;SDS011;55720;51.972;4.624;2022-11-11T05:19:38;42.95;;;17.05;;
35150;SDS011;55720;51.972;4.624;2022-11-11T05:22:26;32.03;;;17.88;;
35150;SDS011;55720;51.972;4.624;2022-11-11T05:24:53;36.97;;;18.48;;
35150;SDS011;55720;51.972;4.624;2022-11-11T05:27:38;33.80;;;18.35;;
35150;SDS011;55720;51.972;4.624;2022-11-11T05:30:05;30.33;;;17.35;;
35150;SDS011;55720;51.972;4.624;2022-11-11T05:32:31;34.28;;;17.98;;
35150;SDS011;55720;51.972;4.624;2022-11-11T05:34:56;35.05;;;17.33;;
35150;SDS011;55720;51.972;4.624;2022-11-11T05:37:22;39.90;;;17.10;;
35150;SDS011;55720;51.972;4.624;2022-11-11T05:39:47;40.13;;;18.00;;
35150;SDS011;55720;51.972;4.624;2022-11-11T05:42:13;35.83;;;17.98;;
35150;SDS011;55720;51.972;4.624;2022-11-11T05:44:39;33.90;;;18.45;;
35150;SDS011;55720;51.972;4.624;2022-11-11T05:47:04;31.77;;;16.92;;
35150;SDS011;55720;51.972;4.624;2022-11-11T05:49:29;36.53;;;17.98;;
35150;SDS011;55720;51.972;4.624;2022-11-11T05:51:55;42.88;;;18.63;;
35150;SDS011;55720;51.972;4.624;2022-11-11T05:54:20;37.85;;;17.75;;
35150;SDS011;55720;51.972;4.624;2022-11-11T05:56:47;35.97;;;17.63;;
35150;SDS011;55720;51.972;4.624;2022-11-11T05:59:12;31.83;;;17.50;;
35150;SDS011;55720;51.972;4.624;2022-11-11T06:01:37;32.88;;;17.77;;
35150;SDS011;55720;51.972;4.624;2022-11-11T06:04:03;34.75;;;17.40;;
35150;SDS011;55720;51.972;4.624;2022-11-11T06:06:30;34.72;;;16.95;;
35150;SDS011;55720;51.972;4.624;2022-11-11T06:08:56;34.05;;;17.58;;
35150;SDS011;55720;51.972;4.624;2022-11-11T06:11:21;32.92;;;17.58;;
35150;SDS011;55720;51.972;4.624;2022-11-11T06:13:47;32.65;;;17.73;;
35150;SDS011;55720;51.972;4.624;2022-11-11T06:16:12;31.95;;;16.95;;
35150;SDS011;55720;51.972;4.624;2022-11-11T06:18:38;34.63;;;17.17;;
35150;SDS011;55720;51.972;4.624;2022-11-11T06:21:03;29.50;;;16.83;;
35150;SDS011;55720;51.972;4.624;2022-11-11T06:23:29;36.22;;;16.90;;
35150;SDS011;55720;51.972;4.624;2022-11-11T06:25:55;34.88;;;18.63;;
35150;SDS011;55720;51.972;4.624;2022-11-11T06:28:52;32.40;;;18.38;;
35150;SDS011;55720;51.972;4.624;2022-11-11T06:31:22;33.53;;;17.25;;
35150;SDS011;55720;51.972;4.624;2022-11-11T06:33:49;35.28;;;18.08;;
35150;SDS011;55720;51.972;4.624;2022-11-11T06:36:15;34.22;;;17.50;;
35150;SDS011;55720;51.972;4.624;2022-11-11T06:38:42;36.83;;;17.95;;
35150;SDS011;55720;51.972;4.624;2022-11-11T06:41:08;34.33;;;17.63;;
35150;SDS011;55720;51.972;4.624;2022-11-11T06:43:36;37.67;;;17.95;;
35150;SDS011;55720;51.972;4.624;2022-11-11T06:46:03;29.45;;;18.95;;
35150;SDS011;55720;51.972;4.624;2022-11-11T06:48:28;32.28;;;17.73;;
35150;SDS011;55720;51.972;4.624;2022-11-11T06:50:54;39.50;;;19.02;;
35150;SDS011;55720;51.972;4.624;2022-11-11T06:55:50;33.42;;;17.33;;
35150;SDS011;55720;51.972;4.624;2022-11-11T06:58:17;38.33;;;19.00;;
35150;SDS011;55720;51.972;4.624;2022-11-11T07:00:44;35.67;;;19.08;;
35150;SDS011;55720;51.972;4.624;2022-11-11T07:03:11;33.97;;;18.10;;
35150;SDS011;55720;51.972;4.624;2022-11-11T07:05:38;39.05;;;18.85;;
35150;SDS011;55720;51.972;4.624;2022-11-11T07:08:04;40.40;;;18.83;;
35150;SDS011;55720;51.972;4.624;2022-11-11T07:10:39;36.63;;;18.45;;
35150;SDS011;55720;51.972;4.624;2022-11-11T07:13:07;35.50;;;18.90;;
35150;SDS011;55720;51.972;4.624;2022-11-11T07:15:32;31.92;;;18.17;;
35150;SDS011;55720;51.972;4.624;2022-11-11T07:17:58;31.02;;;16.60;;
35150;SDS011;55720;51.972;4.624;2022-11-11T07:20:24;35.03;;;16.90;;
35150;SDS011;55720;51.972;4.624;2022-11-11T07:22:49;30.13;;;16.13;;
35150;SDS011;55720;51.972;4.624;2022-11-11T07:25:15;32.10;;;17.33;;
35150;SDS011;55720;51.972;4.624;2022-11-11T07:27:40;29.70;;;17.02;;
35150;SDS011;55720;51.972;4.624;2022-11-11T07:30:06;26.42;;;16.13;;
35150;SDS011;55720;51.972;4.624;2022-11-11T07:32:33;32.78;;;16.42;;
35150;SDS011;55720;51.972;4.624;2022-11-11T07:34:59;29.90;;;16.75;;
35150;SDS011;55720;51.972;4.624;2022-11-11T07:37:25;36.38;;;16.88;;
35150;SDS011;55720;51.972;4.624;2022-11-11T07:39:50;36.92;;;19.23;;
35150;SDS011;55720;51.972;4.624;2022-11-11T07:42:15;32.03;;;18.85;;
35150;SDS011;55720;51.972;4.624;2022-11-11T07:44:41;36.40;;;19.65;;
35150;SDS011;55720;51.972;4.624;2022-11-11T07:47:06;31.45;;;18.33;;
35150;SDS011;55720;51.972;4.624;2022-11-11T07:49:32;28.45;;;17.05;;
35150;SDS011;55720;51.972;4.624;2022-11-11T07:51:57;31.48;;;17.42;;
35150;SDS011;55720;51.972;4.624;2022-11-11T07:54:23;37.63;;;18.33;;
35150;SDS011;55720;51.972;4.624;2022-11-11T07:56:49;31.10;;;17.52;;
35150;SDS011;55720;51.972;4.624;2022-11-11T07:59:14;35.65;;;17.75;;
35150;SDS011;55720;51.972;4.624;2022-11-11T08:01:39;31.70;;;16.98;;
35150;SDS011;55720;51.972;4.624;2022-11-11T08:04:05;30.92;;;17.35;;
35150;SDS011;55720;51.972;4.624;2022-11-11T08:06:30;28.83;;;16.92;;
35150;SDS011;55720;51.972;4.624;2022-11-11T08:08:55;28.00;;;15.90;;
35150;SDS011;55720;51.972;4.624;2022-11-11T08:11:21;30.60;;;18.05;;
35150;SDS011;55720;51.972;4.624;2022-11-11T08:14:07;32.13;;;17.02;;
35150;SDS011;55720;51.972;4.624;2022-11-11T08:16:33;32.33;;;17.08;;
35150;SDS011;55720;51.972;4.624;2022-11-11T08:18:58;28.63;;;16.73;;
35150;SDS011;55720;51.972;4.624;2022-11-11T08:21:24;27.02;;;16.23;;
35150;SDS011;55720;51.972;4.624;2022-11-11T08:23:49;29.17;;;16.13;;
35150;SDS011;55720;51.972;4.624;2022-11-11T08:26:16;32.25;;;16.48;;
35150;SDS011;55720;51.972;4.624;2022-11-11T08:28:42;30.90;;;16.50;;
35150;SDS011;55720;51.972;4.624;2022-11-11T08:31:09;32.50;;;17.85;;
35150;SDS011;55720;51.972;4.624;2022-11-11T08:33:34;24.80;;;15.40;;
35150;SDS011;55720;51.972;4.624;2022-11-11T08:36:00;29.42;;;15.77;;
35150;SDS011;55720;51.972;4.624;2022-11-11T08:38:26;28.65;;;15.48;;
35150;SDS011;55720;51.972;4.624;2022-11-11T08:40:52;31.65;;;16.02;;
35150;SDS011;55720;51.972;4.624;2022-11-11T08:43:18;26.27;;;15.55;;
35150;SDS011;55720;51.972;4.624;2022-11-11T08:45:44;27.13;;;14.07;;
35150;SDS011;55720;51.972;4.624;2022-11-11T08:48:09;28.23;;;15.13;;
35150;SDS011;55720;51.972;4.624;2022-11-11T08:50:38;26.05;;;14.73;;
35150;SDS011;55720;51.972;4.624;2022-11-11T08:53:05;23.23;;;14.45;;
35150;SDS011;55720;51.972;4.624;2022-11-11T08:55:32;20.05;;;13.23;;
35150;SDS011;55720;51.972;4.624;2022-11-11T08:57:58;27.33;;;14.70;;
35150;SDS011;55720;51.972;4.624;2022-11-11T09:00:25;21.33;;;13.98;;
35150;SDS011;55720;51.972;4.624;2022-11-11T09:02:51;23.13;;;13.07;;
35150;SDS011;55720;51.972;4.624;2022-11-11T09:05:16;22.95;;;14.20;;
35150;SDS011;55720;51.972;4.624;2022-11-11T09:07:42;27.02;;;13.98;;
35150;SDS011;55720;51.972;4.624;2022-11-11T09:10:08;21.40;;;12.90;;
35150;SDS011;55720;51.972;4.624;2022-11-11T09:12:33;26.30;;;13.05;;
35150;SDS011;55720;51.972;4.624;2022-11-11T09:14:59;23.35;;;13.02;;
35150;SDS011;55720;51.972;4.624;2022-11-11T09:17:25;19.85;;;13.05;;
35150;SDS011;55720;51.972;4.624;2022-11-11T09:19:51;25.45;;;14.05;;
35150;SDS011;55720;51.972;4.624;2022-11-11T09:22:16;22.10;;;13.00;;
35150;SDS011;55720;51.972;4.624;2022-11-11T09:24:42;21.05;;;13.23;;
35150;SDS011;55720;51.972;4.624;2022-11-11T09:27:08;25.88;;;14.57;;
35150;SDS011;55720;51.972;4.624;2022-11-11T09:29:34;22.92;;;13.77;;
35150;SDS011;55720;51.972;4.624;2022-11-11T09:31:59;19.95;;;13.05;;
35150;SDS011;55720;51.972;4.624;2022-11-11T09:34:24;22.25;;;13.10;;
35150;SDS011;55720;51.972;4.624;2022-11-11T09:36:50;23.85;;;13.43;;
35150;SDS011;55720;51.972;4.624;2022-11-11T09:39:15;24.05;;;12.80;;
35150;SDS011;55720;51.972;4.624;2022-11-11T09:47:11;21.23;;;12.32;;
35150;SDS011;55720;51.972;4.624;2022-11-11T09:49:50;18.42;;;12.52;;
35150;SDS011;55720;51.972;4.624;2022-11-11T09:52:30;21.20;;;12.35;;
35150;SDS011;55720;51.972;4.624;2022-11-11T09:55:12;22.35;;;12.35;;
35150;SDS011;55720;51.972;4.624;2022-11-11T09:57:51;22.23;;;12.88;;
35150;SDS011;55720;51.972;4.624;2022-11-11T10:00:24;17.65;;;11.60;;
35150;SDS011;55720;51.972;4.624;2022-11-11T10:03:04;22.05;;;12.40;;
35150;SDS011;55720;51.972;4.624;2022-11-11T10:05:42;21.23;;;12.15;;
35150;SDS011;55720;51.972;4.624;2022-11-11T10:08:20;19.25;;;11.80;;
35150;SDS011;55720;51.972;4.624;2022-11-11T10:10:53;15.75;;;11.15;;
35150;SDS011;55720;51.972;4.624;2022-11-11T10:13:29;17.70;;;11.68;;
35150;SDS011;55720;51.972;4.624;2022-11-11T10:15:57;17.42;;;11.90;;
35150;SDS011;55720;51.972;4.624;2022-11-11T10:18:32;22.08;;;12.07;;
35150;SDS011;55720;51.972;4.624;2022-11-11T10:21:15;19.00;;;12.23;;
35150;SDS011;55720;51.972;4.624;2022-11-11T10:23:48;15.70;;;11.50;;
35150;SDS011;55720;51.972;4.624;2022-11-11T10:26:20;20.02;;;11.48;;
35150;SDS011;55720;51.972;4.624;2022-11-11T10:28:56;18.00;;;11.23;;
35150;SDS011;55720;51.972;4.624;2022-11-11T10:31:25;16.65;;;10.65;;
35150;SDS011;55720;51.972;4.624;2022-11-11T10:33:54;15.70;;;10.93;;
35150;SDS011;55720;51.972;4.624;2022-11-11T10:36:24;16.17;;;11.32;;
35150;SDS011;55720;51.972;4.624;2022-11-11T10:38:59;17.85;;;10.93;;
35150;SDS011;55720;51.972;4.624;2022-11-11T10:41:31;19.35;;;11.25;;
35150;SDS011;55720;51.972;4.624;2022-11-11T10:44:01;18.42;;;10.82;;
35150;SDS011;55720;51.972;4.624;2022-11-11T10:46:42;16.27;;;11.25;;
35150;SDS011;55720;51.972;4.624;2022-11-11T10:49:20;20.02;;;11.80;;
35150;SDS011;55720;51.972;4.624;2022-11-11T10:51:52;18.50;;;10.70;;
35150;SDS011;55720;51.972;4.624;2022-11-11T10:54:45;17.58;;;11.10;;
35150;SDS011;55720;51.972;4.624;2022-11-11T10:57:51;15.90;;;10.13;;
35150;SDS011;55720;51.972;4.624;2022-11-11T11:00:19;14.05;;;10.05;;
35150;SDS011;55720;51.972;4.624;2022-11-11T11:05:25;17.92;;;10.32;;
35150;SDS011;55720;51.972;4.624;2022-11-11T11:07:59;14.73;;;10.00;;
35150;SDS011;55720;51.972;4.624;2022-11-11T11:10:41;14.90;;;9.90;;
35150;SDS011;55720;51.972;4.624;2022-11-11T11:13:20;21.98;;;10.40;;
35150;SDS011;55720;51.972;4.624;2022-11-11T11:15:54;17.50;;;9.82;;
35150;SDS011;55720;51.972;4.624;2022-11-11T11:18:27;15.38;;;9.90;;
35150;SDS011;55720;51.972;4.624;2022-11-11T11:20:54;13.77;;;9.90;;
35150;SDS011;55720;51.972;4.624;2022-11-11T11:26:06;15.43;;;10.38;;
35150;SDS011;55720;51.972;4.624;2022-11-11T11:28:33;13.23;;;9.40;;
35150;SDS011;55720;51.972;4.624;2022-11-11T11:31:03;18.65;;;9.90;;
35150;SDS011;55720;51.972;4.624;2022-11-11T11:36:23;11.48;;;8.40;;
35150;SDS011;55720;51.972;4.624;2022-11-11T11:38:48;14.35;;;8.52;;
35150;SDS011;55720;51.972;4.624;2022-11-11T11:41:17;15.05;;;8.55;;
35150;SDS011;55720;51.972;4.624;2022-11-11T11:44:01;12.50;;;8.55;;
35150;SDS011;55720;51.972;4.624;2022-11-11T11:46:27;12.25;;;8.18;;
35150;SDS011;55720;51.972;4.624;2022-11-11T11:49:11;17.83;;;8.10;;
35150;SDS011;55720;51.972;4.624;2022-11-11T11:51:51;11.98;;;8.02;;
35150;SDS011;55720;51.972;4.624;2022-11-11T12:00:02;9.90;;;7.70;;
35150;SDS011;55720;51.972;4.624;2022-11-11T12:22:09;13.77;;;8.30;;
35150;SDS011;55720;51.972;4.624;2022-11-11T12:27:18;12.25;;;8.38;;
35150;SDS011;55720;51.972;4.624;2022-11-11T12:30:02;11.88;;;8.45;;
35150;SDS011;55720;51.972;4.624;2022-11-11T12:40:51;10.00;;;8.32;;
35150;SDS011;55720;51.972;4.624;2022-11-11T12:49:04;11.27;;;7.38;;
35150;SDS011;55720;51.972;4.624;2022-11-11T12:51:54;12.07;;;7.05;;
35150;SDS011;55720;51.972;4.624;2022-11-11T12:54:30;12.25;;;7.47;;
35150;SDS011;55720;51.972;4.624;2022-11-11T12:57:16;14.02;;;7.85;;
35150;SDS011;55720;51.972;4.624;2022-11-11T13:15:28;10.90;;;6.05;;
35150;SDS011;55720;51.972;4.624;2022-11-11T13:17:54;11.73;;;6.07;;
35150;SDS011;55720;51.972;4.624;2022-11-11T13:23:28;7.82;;;5.40;;
35150;SDS011;55720;51.972;4.624;2022-11-11T13:25:59;9.70;;;6.00;;
35150;SDS011;55720;51.972;4.624;2022-11-11T13:31:06;14.45;;;6.28;;
35150;SDS011;55720;51.972;4.624;2022-11-11T13:33:52;10.88;;;5.93;;
35150;SDS011;55720;51.972;4.624;2022-11-11T13:36:25;8.07;;;5.20;;
35150;SDS011;55720;51.972;4.624;2022-11-11T13:38:53;6.18;;;5.57;;
35150;SDS011;55720;51.972;4.624;2022-11-11T13:41:25;8.68;;;5.38;;
35150;SDS011;55720;51.972;4.624;2022-11-11T13:43:54;9.27;;;5.28;;
35150;SDS011;55720;51.972;4.624;2022-11-11T13:48:55;6.88;;;4.93;;
35150;SDS011;55720;51.972;4.624;2022-11-11T13:51:36;7.82;;;4.75;;
35150;SDS011;55720;51.972;4.624;2022-11-11T13:54:03;8.63;;;4.90;;
35150;SDS011;55720;51.972;4.624;2022-11-11T13:59:02;9.52;;;5.30;;
35150;SDS011;55720;51.972;4.624;2022-11-11T14:01:34;9.15;;;4.82;;
35150;SDS011;55720;51.972;4.624;2022-11-11T14:04:08;7.32;;;5.13;;
35150;SDS011;55720;51.972;4.624;2022-11-11T14:12:40;12.82;;;6.45;;
35150;SDS011;55720;51.972;4.624;2022-11-11T14:15:31;13.32;;;6.28;;
35150;SDS011;55720;51.972;4.624;2022-11-11T14:18:30;9.23;;;6.18;;
35150;SDS011;55720;51.972;4.624;2022-11-11T14:21:02;10.65;;;6.32;;
35150;SDS011;55720;51.972;4.624;2022-11-11T14:23:41;12.90;;;6.13;;
35150;SDS011;55720;51.972;4.624;2022-11-11T14:28:52;8.23;;;6.35;;
35150;SDS011;55720;51.972;4.624;2022-11-11T14:39:29;15.00;;;7.60;;
35150;SDS011;55720;51.972;4.624;2022-11-11T14:42:01;13.80;;;7.35;;
35150;SDS011;55720;51.972;4.624;2022-11-11T14:50:10;10.13;;;6.57;;
35150;SDS011;55720;51.972;4.624;2022-11-11T14:52:36;11.35;;;6.80;;
35150;SDS011;55720;51.972;4.624;2022-11-11T14:55:18;17.40;;;7.13;;
35150;SDS011;55720;51.972;4.624;2022-11-11T14:58:08;10.52;;;6.80;;
35150;SDS011;55720;51.972;4.624;2022-11-11T15:00:55;10.55;;;6.53;;
35150;SDS011;55720;51.972;4.624;2022-11-11T15:03:29;10.82;;;6.60;;
35150;SDS011;55720;51.972;4.624;2022-11-11T15:06:13;11.75;;;6.90;;
35150;SDS011;55720;51.972;4.624;2022-11-11T15:11:47;8.57;;;6.60;;
35150;SDS011;55720;51.972;4.624;2022-11-11T15:17:32;11.15;;;6.70;;
35150;SDS011;55720;51.972;4.624;2022-11-11T15:25:52;11.23;;;6.97;;
35150;SDS011;55720;51.972;4.624;2022-11-11T15:37:14;12.15;;;6.80;;
35150;SDS011;55720;51.972;4.624;2022-11-11T15:40:00;12.93;;;6.30;;
35150;SDS011;55720;51.972;4.624;2022-11-11T15:44:57;14.10;;;7.85;;
35150;SDS011;55720;51.972;4.624;2022-11-11T15:47:25;15.60;;;7.17;;
35150;SDS011;55720;51.972;4.624;2022-11-11T15:49:51;10.65;;;6.88;;
35150;SDS011;55720;51.972;4.624;2022-11-11T15:52:33;14.07;;;8.52;;
35150;SDS011;55720;51.972;4.624;2022-11-11T15:55:00;9.02;;;6.63;;
35150;SDS011;55720;51.972;4.624;2022-11-11T15:57:34;12.30;;;7.15;;
35150;SDS011;55720;51.972;4.624;2022-11-11T16:00:00;12.73;;;7.68;;
35150;SDS011;55720;51.972;4.624;2022-11-11T16:02:43;14.15;;;6.93;;
35150;SDS011;55720;51.972;4.624;2022-11-11T16:05:30;12.52;;;7.25;;
35150;SDS011;55720;51.972;4.624;2022-11-11T16:07:56;12.85;;;7.45;;
35150;SDS011;55720;51.972;4.624;2022-11-11T16:10:27;11.00;;;7.20;;
35150;SDS011;55720;51.972;4.624;2022-11-11T16:12:56;15.57;;;7.68;;
35150;SDS011;55720;51.972;4.624;2022-11-11T16:18:02;16.15;;;8.48;;
35150;SDS011;55720;51.972;4.624;2022-11-11T16:20:33;14.80;;;7.57;;
35150;SDS011;55720;51.972;4.624;2022-11-11T16:23:06;11.65;;;7.65;;
35150;SDS011;55720;51.972;4.624;2022-11-11T16:25:33;13.45;;;8.55;;
35150;SDS011;55720;51.972;4.624;2022-11-11T16:27:59;15.52;;;7.70;;
35150;SDS011;55720;51.972;4.624;2022-11-11T16:33:00;18.02;;;8.15;;
35150;SDS011;55720;51.972;4.624;2022-11-11T16:38:01;15.60;;;7.90;;
35150;SDS011;55720;51.972;4.624;2022-11-11T16:43:09;14.68;;;8.65;;
35150;SDS011;55720;51.972;4.624;2022-11-11T16:45:45;12.77;;;7.97;;
35150;SDS011;55720;51.972;4.624;2022-11-11T16:50:59;14.07;;;8.30;;
35150;SDS011;55720;51.972;4.624;2022-11-11T16:53:30;13.23;;;8.77;;
35150;SDS011;55720;51.972;4.624;2022-11-11T16:56:03;17.35;;;9.40;;
35150;SDS011;55720;51.972;4.624;2022-11-11T16:58:31;12.80;;;8.07;;
35150;SDS011;55720;51.972;4.624;2022-11-11T17:01:04;17.17;;;8.23;;
35150;SDS011;55720;51.972;4.624;2022-11-11T17:03:30;14.23;;;8.20;;
35150;SDS011;55720;51.972;4.624;2022-11-11T17:05:57;15.55;;;8.07;;
35150;SDS011;55720;51.972;4.624;2022-11-11T17:08:39;16.02;;;8.95;;
35150;SDS011;55720;51.972;4.624;2022-11-11T17:11:07;16.63;;;8.80;;
35150;SDS011;55720;51.972;4.624;2022-11-11T17:13:35;12.63;;;7.13;;
35150;SDS011;55720;51.972;4.624;2022-11-11T17:16:02;17.05;;;9.45;;
35150;SDS011;55720;51.972;4.624;2022-11-11T17:18:31;22.70;;;9.63;;